BTK6852 WIII-WIBB
Flight info
| Callsign | BTK6852 |
|---|---|
| Flight time | 1h 17m |
| Altitude | 34000 |
| Route | GOMEL T10 OVSET |
| Aircraft | A320/M-SDFGHIRWB1E/LB1 |
Departure
| Time | 2026-04-21 01:07 |
|---|---|
| Airport | Soekarno-Hatta International Airport (WIII) |
Arrival
| Time | 2026-04-21 02:25 |
|---|---|
| Airport | Sultan Syarif Kasim II International Airport / Roesmin Nurjadin AFB (WIBB) |
| Time | Latitude | Longitude | Altitude | Speed | Heading |
|---|---|---|---|---|---|
| 2026-04-21 00:46 | -6.11968 | 106.65235 | 38 ft | 0 kts | 210° |
| 2026-04-21 00:58 | -6.11957 | 106.65242 | 37 ft | 4 kts | 211° |
| 2026-04-21 00:58 | -6.11934 | 106.65256 | 38 ft | 4 kts | 217° |
| 2026-04-21 00:59 | -6.11914 | 106.65274 | 37 ft | 4 kts | 231° |
| 2026-04-21 00:59 | -6.11903 | 106.65295 | 38 ft | 4 kts | 285° |
| 2026-04-21 00:59 | -6.11905 | 106.65301 | 38 ft | 0 kts | 307° |
| 2026-04-21 01:00 | -6.11898 | 106.65292 | 38 ft | 5 kts | 307° |
| 2026-04-21 01:00 | -6.11879 | 106.65267 | 37 ft | 4 kts | 307° |
| 2026-04-21 01:01 | -6.11863 | 106.65247 | 38 ft | 3 kts | 313° |
| 2026-04-21 01:01 | -6.11811 | 106.65224 | 38 ft | 14 kts | 337° |
| 2026-04-21 01:01 | -6.11788 | 106.65133 | 37 ft | 13 kts | 250° |
| 2026-04-21 01:01 | -6.11829 | 106.65023 | 37 ft | 16 kts | 246° |
| 2026-04-21 01:02 | -6.11880 | 106.64906 | 39 ft | 15 kts | 247° |
| 2026-04-21 01:02 | -6.11914 | 106.64823 | 38 ft | 12 kts | 248° |
| 2026-04-21 01:02 | -6.11945 | 106.64746 | 38 ft | 11 kts | 248° |
| 2026-04-21 01:02 | -6.11972 | 106.64680 | 39 ft | 10 kts | 248° |
| 2026-04-21 01:03 | -6.11995 | 106.64621 | 39 ft | 10 kts | 248° |
| 2026-04-21 01:03 | -6.12014 | 106.64574 | 38 ft | 11 kts | 249° |
| 2026-04-21 01:03 | -6.12039 | 106.64506 | 38 ft | 10 kts | 249° |
| 2026-04-21 01:03 | -6.12061 | 106.64447 | 38 ft | 9 kts | 249° |
| 2026-04-21 01:04 | -6.12081 | 106.64395 | 37 ft | 7 kts | 249° |
| 2026-04-21 01:04 | -6.12098 | 106.64351 | 38 ft | 6 kts | 249° |
| 2026-04-21 01:04 | -6.12112 | 106.64315 | 38 ft | 7 kts | 248° |
| 2026-04-21 01:04 | -6.12150 | 106.64220 | 37 ft | 18 kts | 246° |
| 2026-04-21 01:05 | -6.12196 | 106.64112 | 37 ft | 17 kts | 247° |
| 2026-04-21 01:05 | -6.12241 | 106.64001 | 39 ft | 16 kts | 249° |
| 2026-04-21 01:05 | -6.12245 | 106.63917 | 39 ft | 10 kts | 300° |
| 2026-04-21 01:05 | -6.12196 | 106.63881 | 39 ft | 8 kts | 342° |
| 2026-04-21 01:06 | -6.12146 | 106.63888 | 38 ft | 7 kts | 17° |
| 2026-04-21 01:06 | -6.12099 | 106.63897 | 38 ft | 7 kts | 14° |
| 2026-04-21 01:06 | -6.12069 | 106.63936 | 38 ft | 11 kts | 68° |
| 2026-04-21 01:06 | -6.11955 | 106.64227 | 38 ft | 83 kts | 68° |
| 2026-04-21 01:07 | -6.11660 | 106.64972 | 39 ft | 143 kts | 68° |
| 2026-04-21 01:07 | -6.11248 | 106.66026 | 315 ft | 166 kts | 71° |
| 2026-04-21 01:07 | -6.10837 | 106.67105 | 1059 ft | 170 kts | 69° |
| 2026-04-21 01:07 | -6.10126 | 106.68056 | 1769 ft | 177 kts | 36° |
| 2026-04-21 01:08 | -6.09050 | 106.68738 | 2193 ft | 195 kts | 33° |
| 2026-04-21 01:08 | -6.07833 | 106.69495 | 2491 ft | 217 kts | 33° |
| 2026-04-21 01:08 | -6.06493 | 106.70332 | 2831 ft | 238 kts | 33° |
| 2026-04-21 01:08 | -6.05022 | 106.71262 | 3268 ft | 261 kts | 34° |
| 2026-04-21 01:09 | -6.03459 | 106.72257 | 4075 ft | 269 kts | 34° |
| 2026-04-21 01:09 | -6.01869 | 106.73270 | 4994 ft | 273 kts | 34° |
| 2026-04-21 01:09 | -6.00260 | 106.74294 | 5905 ft | 275 kts | 33° |
| 2026-04-21 01:09 | -5.98469 | 106.74989 | 6756 ft | 283 kts | 6° |
| 2026-04-21 01:10 | -5.96522 | 106.74634 | 7575 ft | 292 kts | 334° |
| 2026-04-21 01:10 | -5.94996 | 106.73279 | 8367 ft | 299 kts | 307° |
| 2026-04-21 01:10 | -5.93941 | 106.71462 | 9161 ft | 304 kts | 296° |
| 2026-04-21 01:10 | -5.93105 | 106.69498 | 9942 ft | 308 kts | 292° |
| 2026-04-21 01:11 | -5.92316 | 106.67444 | 10360 ft | 327 kts | 291° |
| 2026-04-21 01:11 | -5.91458 | 106.65241 | 10577 ft | 349 kts | 292° |
| 2026-04-21 01:11 | -5.90513 | 106.62954 | 11103 ft | 359 kts | 294° |
| 2026-04-21 01:11 | -5.89500 | 106.60642 | 11797 ft | 363 kts | 295° |
| 2026-04-21 01:12 | -5.88444 | 106.58327 | 12535 ft | 366 kts | 296° |
| 2026-04-21 01:12 | -5.87355 | 106.56009 | 13233 ft | 369 kts | 296° |
| 2026-04-21 01:12 | -5.86247 | 106.53674 | 13888 ft | 372 kts | 296° |
| 2026-04-21 01:12 | -5.85125 | 106.51310 | 14527 ft | 376 kts | 296° |
| 2026-04-21 01:13 | -5.84000 | 106.48923 | 15164 ft | 380 kts | 296° |
| 2026-04-21 01:13 | -5.82869 | 106.46509 | 15784 ft | 384 kts | 296° |
| 2026-04-21 01:13 | -5.81734 | 106.44072 | 16379 ft | 387 kts | 296° |
| 2026-04-21 01:13 | -5.80593 | 106.41610 | 16947 ft | 391 kts | 296° |
| 2026-04-21 01:14 | -5.79446 | 106.39126 | 17521 ft | 394 kts | 296° |
| 2026-04-21 01:14 | -5.78284 | 106.36616 | 18072 ft | 397 kts | 296° |
| 2026-04-21 01:14 | -5.77113 | 106.34091 | 18603 ft | 401 kts | 296° |
| 2026-04-21 01:14 | -5.75931 | 106.31542 | 19137 ft | 404 kts | 296° |
| 2026-04-21 01:15 | -5.74675 | 106.29017 | 19628 ft | 406 kts | 302° |
| 2026-04-21 01:15 | -5.73016 | 106.26716 | 20109 ft | 408 kts | 312° |
| 2026-04-21 01:15 | -5.70961 | 106.24751 | 20582 ft | 410 kts | 322° |
| 2026-04-21 01:15 | -5.68716 | 106.22977 | 21039 ft | 412 kts | 322° |
| 2026-04-21 01:16 | -5.66456 | 106.21184 | 21487 ft | 415 kts | 322° |
| 2026-04-21 01:16 | -5.64186 | 106.19376 | 21927 ft | 418 kts | 322° |
| 2026-04-21 01:16 | -5.61905 | 106.17553 | 22356 ft | 421 kts | 322° |
| 2026-04-21 01:16 | -5.59607 | 106.15718 | 22766 ft | 423 kts | 322° |
| 2026-04-21 01:17 | -5.57292 | 106.13869 | 23162 ft | 426 kts | 322° |
| 2026-04-21 01:17 | -5.54966 | 106.12010 | 23555 ft | 429 kts | 322° |
| 2026-04-21 01:17 | -5.52626 | 106.10143 | 23929 ft | 431 kts | 322° |
| 2026-04-21 01:17 | -5.50272 | 106.08267 | 24296 ft | 434 kts | 322° |
| 2026-04-21 01:18 | -5.47902 | 106.06380 | 24679 ft | 436 kts | 322° |
| 2026-04-21 01:18 | -5.45517 | 106.04480 | 25053 ft | 438 kts | 322° |
| 2026-04-21 01:18 | -5.43125 | 106.02575 | 25413 ft | 440 kts | 322° |
| 2026-04-21 01:18 | -5.40717 | 106.00661 | 25766 ft | 442 kts | 322° |
| 2026-04-21 01:19 | -5.38304 | 105.98742 | 26109 ft | 444 kts | 322° |
| 2026-04-21 01:19 | -5.35880 | 105.96813 | 26407 ft | 446 kts | 322° |
| 2026-04-21 01:19 | -5.33440 | 105.94873 | 26741 ft | 448 kts | 322° |
| 2026-04-21 01:19 | -5.30993 | 105.92926 | 27057 ft | 450 kts | 322° |
| 2026-04-21 01:20 | -5.28533 | 105.90973 | 27383 ft | 452 kts | 322° |
| 2026-04-21 01:20 | -5.26059 | 105.89011 | 27692 ft | 454 kts | 322° |
| 2026-04-21 01:20 | -5.23579 | 105.87044 | 27995 ft | 456 kts | 322° |
| 2026-04-21 01:20 | -5.21091 | 105.85066 | 28300 ft | 458 kts | 322° |
| 2026-04-21 01:21 | -5.18589 | 105.83078 | 28588 ft | 459 kts | 322° |
| 2026-04-21 01:21 | -5.16046 | 105.81138 | 28864 ft | 461 kts | 324° |
| 2026-04-21 01:21 | -5.13439 | 105.79254 | 29130 ft | 462 kts | 325° |
| 2026-04-21 01:21 | -5.10800 | 105.77413 | 29381 ft | 464 kts | 326° |
| 2026-04-21 01:22 | -5.08134 | 105.75576 | 29634 ft | 465 kts | 326° |
| 2026-04-21 01:22 | -5.05467 | 105.73732 | 29886 ft | 467 kts | 326° |
| 2026-04-21 01:22 | -5.02798 | 105.71868 | 30143 ft | 468 kts | 326° |
| 2026-04-21 01:22 | -5.00125 | 105.69983 | 30393 ft | 470 kts | 325° |
| 2026-04-21 01:23 | -4.97455 | 105.68081 | 30626 ft | 472 kts | 325° |
| 2026-04-21 01:23 | -4.94780 | 105.66168 | 30865 ft | 473 kts | 325° |
| 2026-04-21 01:23 | -4.92107 | 105.64256 | 31207 ft | 472 kts | 325° |
| 2026-04-21 01:23 | -4.89435 | 105.62347 | 31555 ft | 471 kts | 325° |
| 2026-04-21 01:24 | -4.86770 | 105.60447 | 31889 ft | 470 kts | 325° |
| 2026-04-21 01:24 | -4.84108 | 105.58553 | 32219 ft | 469 kts | 325° |
| 2026-04-21 01:24 | -4.81449 | 105.56661 | 32551 ft | 468 kts | 325° |
| 2026-04-21 01:24 | -4.78792 | 105.54773 | 32880 ft | 468 kts | 325° |
| 2026-04-21 01:25 | -4.76138 | 105.52891 | 33216 ft | 467 kts | 325° |
| 2026-04-21 01:25 | -4.73490 | 105.51014 | 33556 ft | 466 kts | 325° |
| 2026-04-21 01:25 | -4.70846 | 105.49137 | 33828 ft | 466 kts | 325° |
| 2026-04-21 01:25 | -4.68207 | 105.47264 | 33893 ft | 463 kts | 324° |
| 2026-04-21 01:26 | -4.62974 | 105.43548 | 33899 ft | 460 kts | 324° |
| 2026-04-21 01:26 | -4.57755 | 105.39839 | 33898 ft | 460 kts | 325° |
| 2026-04-21 01:27 | -4.52538 | 105.36138 | 33896 ft | 460 kts | 325° |
| 2026-04-21 01:27 | -4.47318 | 105.32435 | 33892 ft | 459 kts | 325° |
| 2026-04-21 01:28 | -4.42102 | 105.28736 | 33887 ft | 460 kts | 324° |
| 2026-04-21 01:28 | -4.36888 | 105.25027 | 33890 ft | 459 kts | 325° |
| 2026-04-21 01:29 | -4.31679 | 105.21326 | 33890 ft | 459 kts | 325° |
| 2026-04-21 01:29 | -4.26477 | 105.17633 | 33891 ft | 458 kts | 325° |
| 2026-04-21 01:30 | -4.21270 | 105.13952 | 33893 ft | 458 kts | 325° |
| 2026-04-21 01:30 | -4.16074 | 105.10264 | 33890 ft | 458 kts | 325° |
| 2026-04-21 01:31 | -4.10876 | 105.06569 | 33890 ft | 458 kts | 324° |
| 2026-04-21 01:31 | -4.06123 | 105.02332 | 33892 ft | 458 kts | 317° |
| 2026-04-21 01:32 | -4.01466 | 104.97974 | 33888 ft | 458 kts | 317° |
| 2026-04-21 01:32 | -3.96793 | 104.93608 | 33885 ft | 459 kts | 317° |
| 2026-04-21 01:33 | -3.92161 | 104.89283 | 33900 ft | 458 kts | 317° |
| 2026-04-21 01:33 | -3.87505 | 104.84930 | 33896 ft | 458 kts | 317° |
| 2026-04-21 01:34 | -3.82851 | 104.80576 | 33902 ft | 458 kts | 317° |
| 2026-04-21 01:34 | -3.78204 | 104.76225 | 33906 ft | 457 kts | 317° |
| 2026-04-21 01:35 | -3.73555 | 104.71880 | 33903 ft | 457 kts | 317° |
| 2026-04-21 01:35 | -3.68912 | 104.67536 | 33899 ft | 457 kts | 317° |
| 2026-04-21 01:36 | -3.64272 | 104.63191 | 33902 ft | 456 kts | 317° |
| 2026-04-21 01:36 | -3.59913 | 104.59120 | 33903 ft | 456 kts | 317° |
| 2026-04-21 01:37 | -3.55269 | 104.54788 | 33901 ft | 456 kts | 317° |
| 2026-04-21 01:37 | -3.50633 | 104.50454 | 33903 ft | 456 kts | 317° |
| 2026-04-21 01:38 | -3.46002 | 104.46117 | 33902 ft | 456 kts | 317° |
| 2026-04-21 01:38 | -3.41367 | 104.41790 | 33897 ft | 455 kts | 317° |
| 2026-04-21 01:39 | -3.36761 | 104.37496 | 33897 ft | 456 kts | 317° |
| 2026-04-21 01:39 | -3.32128 | 104.33168 | 33897 ft | 456 kts | 317° |
| 2026-04-21 01:40 | -3.27489 | 104.28828 | 33900 ft | 456 kts | 317° |
| 2026-04-21 01:40 | -3.22848 | 104.24501 | 33897 ft | 456 kts | 317° |
| 2026-04-21 01:41 | -3.18212 | 104.20174 | 33902 ft | 456 kts | 317° |
| 2026-04-21 01:41 | -3.13580 | 104.15842 | 33904 ft | 455 kts | 317° |
| 2026-04-21 01:42 | -3.08952 | 104.11519 | 33900 ft | 455 kts | 317° |
| 2026-04-21 01:42 | -3.04321 | 104.07201 | 33901 ft | 455 kts | 317° |
| 2026-04-21 01:43 | -2.99679 | 104.02880 | 33904 ft | 455 kts | 317° |
| 2026-04-21 01:43 | -2.95057 | 103.98563 | 33904 ft | 454 kts | 317° |
| 2026-04-21 01:44 | -2.90438 | 103.94252 | 33903 ft | 454 kts | 317° |
| 2026-04-21 01:44 | -2.85821 | 103.89949 | 33903 ft | 453 kts | 317° |
| 2026-04-21 01:45 | -2.81209 | 103.85646 | 33905 ft | 453 kts | 317° |
| 2026-04-21 01:45 | -2.76604 | 103.81345 | 33901 ft | 453 kts | 317° |
| 2026-04-21 01:46 | -2.71998 | 103.77056 | 33901 ft | 453 kts | 317° |
| 2026-04-21 01:46 | -2.67388 | 103.72768 | 33899 ft | 452 kts | 317° |
| 2026-04-21 01:47 | -2.62789 | 103.68476 | 33895 ft | 452 kts | 317° |
| 2026-04-21 01:47 | -2.58196 | 103.64186 | 33900 ft | 452 kts | 317° |
| 2026-04-21 01:48 | -2.53595 | 103.59899 | 33899 ft | 452 kts | 317° |
| 2026-04-21 01:48 | -2.48998 | 103.55610 | 33893 ft | 452 kts | 317° |
| 2026-04-21 01:49 | -2.44398 | 103.51325 | 33895 ft | 452 kts | 317° |
| 2026-04-21 01:49 | -2.39795 | 103.47044 | 33892 ft | 452 kts | 317° |
| 2026-04-21 01:50 | -2.35200 | 103.42760 | 33895 ft | 452 kts | 317° |
| 2026-04-21 01:50 | -2.30601 | 103.38473 | 33898 ft | 452 kts | 317° |
| 2026-04-21 01:51 | -2.26004 | 103.34184 | 33896 ft | 452 kts | 317° |
| 2026-04-21 01:51 | -2.21423 | 103.29888 | 33900 ft | 452 kts | 317° |
| 2026-04-21 01:52 | -2.14530 | 103.23451 | 33899 ft | 452 kts | 317° |
| 2026-04-21 01:53 | -2.09962 | 103.19190 | 33896 ft | 452 kts | 317° |
| 2026-04-21 01:53 | -2.05363 | 103.14903 | 33893 ft | 450 kts | 317° |
| 2026-04-21 01:54 | -2.00784 | 103.10626 | 33890 ft | 451 kts | 317° |
| 2026-04-21 01:54 | -1.96199 | 103.06338 | 33885 ft | 451 kts | 317° |
| 2026-04-21 01:55 | -1.91604 | 103.02051 | 33883 ft | 452 kts | 317° |
| 2026-04-21 01:55 | -1.87004 | 102.97764 | 33891 ft | 452 kts | 317° |
| 2026-04-21 01:56 | -1.82409 | 102.93471 | 33897 ft | 452 kts | 317° |
| 2026-04-21 01:56 | -1.77816 | 102.89178 | 33888 ft | 452 kts | 317° |
| 2026-04-21 01:57 | -1.73215 | 102.84886 | 33894 ft | 453 kts | 317° |
| 2026-04-21 01:57 | -1.68611 | 102.80588 | 33899 ft | 453 kts | 317° |
| 2026-04-21 01:58 | -1.63980 | 102.76263 | 33897 ft | 453 kts | 317° |
| 2026-04-21 01:58 | -1.59379 | 102.71960 | 33899 ft | 453 kts | 317° |
| 2026-04-21 01:59 | -1.54526 | 102.68036 | 33893 ft | 452 kts | 328° |
| 2026-04-21 01:59 | -1.49162 | 102.64679 | 33894 ft | 452 kts | 328° |
| 2026-04-21 02:00 | -1.43879 | 102.61352 | 33892 ft | 452 kts | 328° |
| 2026-04-21 02:00 | -1.38557 | 102.57997 | 33888 ft | 452 kts | 328° |
| 2026-04-21 02:01 | -1.33234 | 102.54650 | 33888 ft | 452 kts | 328° |
| 2026-04-21 02:01 | -1.27905 | 102.51297 | 33886 ft | 453 kts | 328° |
| 2026-04-21 02:02 | -1.22572 | 102.47949 | 33883 ft | 453 kts | 328° |
| 2026-04-21 02:02 | -1.17236 | 102.44599 | 33886 ft | 453 kts | 328° |
| 2026-04-21 02:03 | -1.11905 | 102.41248 | 33886 ft | 453 kts | 328° |
| 2026-04-21 02:03 | -1.07434 | 102.38437 | 33890 ft | 453 kts | 328° |
| 2026-04-21 02:04 | -1.02066 | 102.35150 | 33890 ft | 453 kts | 334° |
| 2026-04-21 02:04 | -0.96082 | 102.33292 | 33890 ft | 452 kts | 353° |
| 2026-04-21 02:05 | -0.89791 | 102.33172 | 33892 ft | 453 kts | 0° |
| 2026-04-21 02:05 | -0.83496 | 102.33210 | 33885 ft | 453 kts | 0° |
| 2026-04-21 02:06 | -0.77196 | 102.33236 | 33883 ft | 453 kts | 0° |
| 2026-04-21 02:06 | -0.74031 | 102.33247 | 33566 ft | 455 kts | 0° |
| 2026-04-21 02:06 | -0.70843 | 102.33263 | 32451 ft | 462 kts | 0° |
| 2026-04-21 02:06 | -0.67606 | 102.33282 | 31355 ft | 468 kts | 0° |
| 2026-04-21 02:07 | -0.64333 | 102.33304 | 30441 ft | 470 kts | 360° |
| 2026-04-21 02:07 | -0.61087 | 102.33324 | 29847 ft | 463 kts | 360° |
| 2026-04-21 02:07 | -0.57879 | 102.33344 | 29141 ft | 459 kts | 360° |
| 2026-04-21 02:07 | -0.54703 | 102.33306 | 28460 ft | 454 kts | 355° |
| 2026-04-21 02:08 | -0.51612 | 102.32766 | 27786 ft | 449 kts | 343° |
| 2026-04-21 02:08 | -0.48717 | 102.31647 | 27126 ft | 445 kts | 333° |
| 2026-04-21 02:08 | -0.46121 | 102.30007 | 26472 ft | 440 kts | 322° |
| 2026-04-21 02:08 | -0.43867 | 102.27960 | 25828 ft | 436 kts | 316° |
| 2026-04-21 02:09 | -0.41699 | 102.25854 | 25185 ft | 432 kts | 316° |
| 2026-04-21 02:09 | -0.39553 | 102.23774 | 24560 ft | 427 kts | 316° |
| 2026-04-21 02:09 | -0.37434 | 102.21723 | 23969 ft | 422 kts | 316° |
| 2026-04-21 02:09 | -0.35338 | 102.19697 | 23383 ft | 417 kts | 316° |
| 2026-04-21 02:10 | -0.33270 | 102.17698 | 22837 ft | 411 kts | 316° |
| 2026-04-21 02:10 | -0.31227 | 102.15720 | 22294 ft | 406 kts | 316° |
| 2026-04-21 02:10 | -0.29211 | 102.13767 | 21787 ft | 401 kts | 316° |
| 2026-04-21 02:10 | -0.27220 | 102.11834 | 21278 ft | 397 kts | 316° |
| 2026-04-21 02:11 | -0.25250 | 102.09922 | 20768 ft | 393 kts | 316° |
| 2026-04-21 02:11 | -0.23302 | 102.08033 | 20268 ft | 389 kts | 316° |
| 2026-04-21 02:11 | -0.21371 | 102.06161 | 19743 ft | 386 kts | 316° |
| 2026-04-21 02:11 | -0.19452 | 102.04298 | 19236 ft | 383 kts | 316° |
| 2026-04-21 02:12 | -0.17549 | 102.02451 | 18709 ft | 380 kts | 316° |
| 2026-04-21 02:12 | -0.15657 | 102.00619 | 18197 ft | 378 kts | 316° |
| 2026-04-21 02:12 | -0.13772 | 101.98792 | 17654 ft | 377 kts | 316° |
| 2026-04-21 02:12 | -0.11896 | 101.96976 | 17125 ft | 375 kts | 316° |
| 2026-04-21 02:13 | -0.10025 | 101.95163 | 16587 ft | 374 kts | 316° |
| 2026-04-21 02:13 | -0.08165 | 101.93358 | 16067 ft | 372 kts | 316° |
| 2026-04-21 02:13 | -0.06313 | 101.91558 | 15546 ft | 371 kts | 316° |
| 2026-04-21 02:13 | -0.04463 | 101.89763 | 15016 ft | 370 kts | 316° |
| 2026-04-21 02:14 | -0.02625 | 101.87980 | 14486 ft | 368 kts | 316° |
| 2026-04-21 02:14 | -0.00793 | 101.86206 | 13969 ft | 365 kts | 316° |
| 2026-04-21 02:14 | 0.01023 | 101.84446 | 13446 ft | 363 kts | 316° |
| 2026-04-21 02:14 | 0.02832 | 101.82691 | 12914 ft | 361 kts | 316° |
| 2026-04-21 02:15 | 0.04603 | 101.80972 | 12394 ft | 359 kts | 316° |
| 2026-04-21 02:15 | 0.06389 | 101.79237 | 11854 ft | 357 kts | 316° |
| 2026-04-21 02:15 | 0.08162 | 101.77517 | 11311 ft | 354 kts | 316° |
| 2026-04-21 02:15 | 0.09926 | 101.75809 | 10762 ft | 352 kts | 316° |
| 2026-04-21 02:16 | 0.11580 | 101.74026 | 10307 ft | 347 kts | 306° |
| 2026-04-21 02:16 | 0.12731 | 101.71969 | 10186 ft | 333 kts | 292° |
| 2026-04-21 02:16 | 0.13366 | 101.69801 | 10062 ft | 320 kts | 283° |
| 2026-04-21 02:16 | 0.13850 | 101.67677 | 9920 ft | 308 kts | 283° |
| 2026-04-21 02:17 | 0.14320 | 101.65619 | 9781 ft | 301 kts | 283° |
| 2026-04-21 02:17 | 0.14787 | 101.63587 | 9213 ft | 298 kts | 283° |
| 2026-04-21 02:17 | 0.15246 | 101.61583 | 8609 ft | 294 kts | 283° |
| 2026-04-21 02:17 | 0.15698 | 101.59605 | 8013 ft | 291 kts | 283° |
| 2026-04-21 02:18 | 0.16145 | 101.57644 | 7416 ft | 288 kts | 282° |
| 2026-04-21 02:18 | 0.16585 | 101.55709 | 6838 ft | 285 kts | 283° |
| 2026-04-21 02:18 | 0.17022 | 101.53791 | 6259 ft | 282 kts | 283° |
| 2026-04-21 02:18 | 0.17457 | 101.51893 | 5678 ft | 279 kts | 283° |
| 2026-04-21 02:19 | 0.17882 | 101.50013 | 5122 ft | 276 kts | 282° |
| 2026-04-21 02:19 | 0.18303 | 101.48152 | 4562 ft | 273 kts | 282° |
| 2026-04-21 02:19 | 0.18721 | 101.46318 | 4043 ft | 267 kts | 282° |
| 2026-04-21 02:19 | 0.19171 | 101.44621 | 3955 ft | 240 kts | 294° |
| 2026-04-21 02:20 | 0.20138 | 101.43371 | 3890 ft | 223 kts | 327° |
| 2026-04-21 02:20 | 0.21618 | 101.43019 | 3828 ft | 223 kts | 9° |
| 2026-04-21 02:20 | 0.23064 | 101.43617 | 3732 ft | 225 kts | 27° |
| 2026-04-21 02:20 | 0.24554 | 101.44000 | 3622 ft | 222 kts | 355° |
| 2026-04-21 02:21 | 0.26078 | 101.43902 | 3524 ft | 223 kts | 358° |
| 2026-04-21 02:21 | 0.27643 | 101.43921 | 3397 ft | 220 kts | 0° |
| 2026-04-21 02:21 | 0.29169 | 101.43967 | 3142 ft | 220 kts | 0° |
| 2026-04-21 02:21 | 0.30703 | 101.44012 | 2854 ft | 222 kts | 0° |
| 2026-04-21 02:22 | 0.32244 | 101.44056 | 2563 ft | 222 kts | 360° |
| 2026-04-21 02:22 | 0.33794 | 101.44102 | 2268 ft | 224 kts | 0° |
| 2026-04-21 02:22 | 0.35322 | 101.44146 | 1965 ft | 212 kts | 0° |
| 2026-04-21 02:22 | 0.36730 | 101.44185 | 1723 ft | 193 kts | 0° |
| 2026-04-21 02:23 | 0.38004 | 101.44221 | 1467 ft | 176 kts | 0° |
| 2026-04-21 02:23 | 0.39181 | 101.44255 | 1233 ft | 163 kts | 0° |
| 2026-04-21 02:23 | 0.40267 | 101.44286 | 1038 ft | 149 kts | 1° |
| 2026-04-21 02:23 | 0.41268 | 101.44314 | 840 ft | 141 kts | 0° |
| 2026-04-21 02:24 | 0.42229 | 101.44342 | 649 ft | 137 kts | 0° |
| 2026-04-21 02:24 | 0.43182 | 101.44369 | 473 ft | 137 kts | 1° |
| 2026-04-21 02:24 | 0.44130 | 101.44391 | 306 ft | 136 kts | 1° |
| 2026-04-21 02:24 | 0.45066 | 101.44426 | 151 ft | 134 kts | 1° |
| 2026-04-21 02:25 | 0.45933 | 101.44451 | 126 ft | 109 kts | 0° |
| 2026-04-21 02:25 | 0.46486 | 101.44464 | 127 ft | 32 kts | 2° |
| 2026-04-21 02:25 | 0.46615 | 101.44469 | 127 ft | 14 kts | 5° |
| 2026-04-21 02:25 | 0.46632 | 101.44539 | 126 ft | 11 kts | 92° |
| 2026-04-21 02:26 | 0.46600 | 101.44595 | 128 ft | 10 kts | 168° |
| 2026-04-21 02:26 | 0.46538 | 101.44594 | 128 ft | 9 kts | 182° |
| 2026-04-21 02:26 | 0.46489 | 101.44593 | 126 ft | 5 kts | 175° |
| 2026-04-21 02:26 | 0.46481 | 101.44618 | 126 ft | 4 kts | 81° |
| 2026-04-21 02:27 | 0.46482 | 101.44643 | 124 ft | 3 kts | 92° |
| 2026-04-21 02:27 | 0.46481 | 101.44666 | 128 ft | 3 kts | 92° |
| 2026-04-21 02:27 | 0.46480 | 101.44682 | 125 ft | 1 kts | 92° |
| 2026-04-21 02:27 | 0.46480 | 101.44684 | 128 ft | 0 kts | 92° |